createdAt,value
2023-02-14T00:02:22.112Z,3.25
2023-02-14T00:04:48.593Z,3.23
2023-02-14T00:07:15.221Z,3.21
2023-02-14T00:09:41.729Z,3.18
2023-02-14T00:12:08.149Z,3.17
2023-02-14T00:14:53.470Z,3.16
2023-02-14T00:17:19.913Z,3.12
2023-02-14T00:19:46.420Z,3.11
2023-02-14T00:22:13.068Z,3.07
2023-02-14T00:24:39.528Z,3.03
2023-02-14T00:27:06.076Z,2.98
2023-02-14T00:29:33.678Z,2.96
2023-02-14T00:32:01.040Z,2.94
2023-02-14T00:34:28.134Z,2.90
2023-02-14T00:36:54.711Z,2.90
2023-02-14T00:39:21.187Z,2.87
2023-02-14T00:41:47.869Z,2.85
2023-02-14T00:44:14.553Z,2.83
2023-02-14T00:46:41.576Z,2.82
2023-02-14T00:49:08.297Z,2.79
2023-02-14T00:51:35.102Z,2.77
2023-02-14T00:54:01.926Z,2.75
2023-02-14T00:56:28.395Z,2.73
2023-02-14T00:58:55.080Z,2.70
2023-02-14T01:01:21.619Z,2.67
2023-02-14T01:03:48.183Z,2.65
2023-02-14T01:06:15.129Z,2.62
2023-02-14T01:08:41.793Z,2.58
2023-02-14T01:11:09.125Z,2.55
2023-02-14T01:13:35.586Z,2.52
2023-02-14T01:16:07.540Z,2.52
2023-02-14T01:18:35.162Z,2.52
2023-02-14T01:21:13.896Z,2.51
2023-02-14T01:23:41.142Z,2.51
2023-02-14T01:26:08.401Z,2.51
2023-02-14T01:28:34.974Z,2.48
2023-02-14T01:31:07.837Z,2.46
2023-02-14T01:33:34.391Z,2.40
2023-02-14T01:36:00.976Z,2.36
2023-02-14T01:38:27.392Z,2.31
2023-02-14T01:40:53.820Z,2.30
2023-02-14T01:43:20.278Z,2.27
2023-02-14T01:45:46.961Z,2.23
2023-02-14T01:48:15.277Z,2.17
2023-02-14T01:50:45.452Z,2.13
2023-02-14T01:53:24.682Z,2.12
2023-02-14T01:55:57.043Z,2.10
2023-02-14T01:58:27.866Z,2.08
2023-02-14T02:00:57.051Z,2.09
2023-02-14T02:03:36.569Z,2.08
2023-02-14T02:06:28.009Z,2.09
2023-02-14T02:08:59.420Z,2.07
2023-02-14T02:11:26.910Z,2.07
2023-02-14T02:13:53.658Z,2.07
2023-02-14T02:16:50.192Z,2.04
2023-02-14T02:19:35.169Z,2.03
2023-02-14T02:22:31.036Z,2.02
2023-02-14T02:25:10.419Z,2.00
2023-02-14T02:27:52.082Z,2.00
2023-02-14T02:30:30.772Z,1.98
2023-02-14T02:33:09.077Z,1.94
2023-02-14T02:35:57.505Z,1.89
2023-02-14T02:38:33.018Z,1.85
2023-02-14T02:41:21.848Z,1.79
2023-02-14T02:44:03.783Z,1.81
2023-02-14T02:46:48.172Z,1.79
2023-02-14T02:49:46.919Z,1.77
2023-02-14T02:52:42.474Z,1.78
2023-02-14T02:55:24.322Z,1.75
2023-02-14T02:57:53.479Z,1.72
2023-02-14T03:00:22.160Z,1.73
2023-02-14T03:03:11.558Z,1.72
2023-02-14T03:05:38.444Z,1.70
2023-02-14T03:08:05.730Z,1.66
2023-02-14T03:10:36.622Z,1.60
2023-02-14T03:13:12.299Z,1.55
2023-02-14T03:15:44.132Z,1.56
2023-02-14T03:18:47.674Z,1.59
2023-02-14T03:21:20.194Z,1.62
2023-02-14T03:23:59.499Z,1.65
2023-02-14T03:26:33.745Z,1.67
2023-02-14T03:29:06.266Z,1.63
2023-02-14T03:31:58.700Z,1.61
2023-02-14T03:34:40.590Z,1.62
2023-02-14T03:37:34.662Z,1.63
2023-02-14T03:40:13.390Z,1.64
2023-02-14T03:42:49.904Z,1.64
2023-02-14T03:45:27.765Z,1.58
2023-02-14T03:48:00.423Z,1.59
2023-02-14T03:50:28.867Z,1.56
2023-02-14T03:52:56.956Z,1.53
2023-02-14T03:55:34.602Z,1.48
2023-02-14T03:58:12.333Z,1.42
2023-02-14T04:00:41.841Z,1.41
2023-02-14T04:03:14.988Z,1.41
2023-02-14T04:05:43.854Z,1.40
2023-02-14T04:08:12.011Z,1.39
2023-02-14T04:10:40.074Z,1.39
2023-02-14T04:13:06.570Z,1.39
2023-02-14T04:15:33.051Z,1.37
2023-02-14T04:18:18.089Z,1.35
2023-02-14T04:20:44.549Z,1.30
2023-02-14T04:23:11.080Z,1.31
2023-02-14T04:25:40.005Z,1.29
2023-02-14T04:28:06.444Z,1.25
2023-02-14T04:30:32.926Z,1.22
2023-02-14T04:32:59.309Z,1.21
2023-02-14T04:35:25.756Z,1.11
2023-02-14T04:37:52.780Z,1.10
2023-02-14T04:40:19.346Z,1.11
2023-02-14T04:42:46.349Z,1.10
2023-02-14T04:45:13.193Z,1.11
2023-02-14T04:47:39.649Z,1.10
2023-02-14T04:50:06.743Z,1.08
2023-02-14T04:52:33.224Z,1.10
2023-02-14T04:54:59.796Z,1.10
2023-02-14T04:57:26.249Z,1.08
2023-02-14T04:59:52.698Z,1.09
2023-02-14T05:02:19.168Z,1.06
2023-02-14T05:04:45.653Z,1.01
2023-02-14T05:07:12.105Z,0.99
2023-02-14T05:09:38.572Z,0.99
2023-02-14T05:12:05.177Z,0.95
2023-02-14T05:14:31.690Z,0.95
2023-02-14T05:16:58.189Z,0.93
2023-02-14T05:19:25.107Z,0.92
2023-02-14T05:21:51.645Z,0.90
2023-02-14T05:24:18.138Z,0.86
2023-02-14T05:26:44.541Z,0.85
2023-02-14T05:29:11.047Z,0.83
2023-02-14T05:31:37.673Z,0.83
2023-02-14T05:34:04.224Z,0.82
2023-02-14T05:36:30.853Z,0.77
2023-02-14T05:38:57.275Z,0.72
2023-02-14T05:41:23.670Z,0.70
2023-02-14T05:43:50.125Z,0.67
2023-02-14T05:46:16.577Z,0.67
2023-02-14T05:48:43.049Z,0.67
2023-02-14T05:51:10.670Z,0.67
2023-02-14T05:53:37.492Z,0.66
2023-02-14T05:56:04.776Z,0.66
2023-02-14T05:58:32.226Z,0.66
2023-02-14T06:01:00.287Z,0.65
2023-02-14T06:03:27.580Z,0.63
2023-02-14T06:05:53.979Z,0.62
2023-02-14T06:08:20.450Z,0.62
2023-02-14T06:10:47.106Z,0.61
2023-02-14T06:13:13.627Z,0.59
2023-02-14T06:15:40.044Z,0.59
2023-02-14T06:18:06.899Z,0.60
2023-02-14T06:20:33.376Z,0.59
2023-02-14T06:22:59.836Z,0.59
2023-02-14T06:25:27.214Z,0.60
2023-02-14T06:27:57.675Z,0.57
2023-02-14T06:30:24.517Z,0.54
2023-02-14T06:32:51.760Z,0.51
2023-02-14T06:35:18.443Z,0.50
2023-02-14T06:37:45.386Z,0.49
2023-02-14T06:40:13.265Z,0.49
2023-02-14T06:42:40.074Z,0.45
2023-02-14T06:45:06.998Z,0.45
2023-02-14T06:47:34.952Z,0.44
2023-02-14T06:50:01.700Z,0.42
2023-02-14T06:52:28.115Z,0.40
2023-02-14T06:54:54.547Z,0.38
2023-02-14T06:57:20.951Z,0.41
2023-02-14T06:59:47.404Z,0.41
2023-02-14T07:02:13.976Z,0.40
2023-02-14T07:04:40.436Z,0.41
2023-02-14T07:07:07.038Z,0.41
2023-02-14T07:09:33.492Z,0.42
2023-02-14T07:12:00.003Z,0.43
2023-02-14T07:14:26.569Z,0.44
2023-02-14T07:16:53.020Z,0.46
2023-02-14T07:19:19.414Z,0.46
2023-02-14T07:21:45.819Z,0.50
2023-02-14T07:24:12.272Z,0.53
2023-02-14T07:26:38.670Z,0.53
2023-02-14T07:29:05.238Z,0.57
2023-02-14T07:31:31.864Z,0.60
2023-02-14T07:34:00.789Z,0.63
2023-02-14T07:36:27.731Z,0.66
2023-02-14T07:38:56.470Z,0.69
2023-02-14T07:41:23.497Z,0.70
2023-02-14T07:43:49.946Z,0.72
2023-02-14T07:46:17.544Z,0.74
2023-02-14T07:48:44.206Z,0.74
2023-02-14T07:51:11.229Z,0.78
2023-02-14T07:53:37.776Z,0.81
2023-02-14T07:56:04.329Z,0.80
2023-02-14T07:58:30.781Z,0.81
2023-02-14T08:00:57.430Z,0.83
2023-02-14T08:03:24.163Z,0.86
2023-02-14T08:06:00.012Z,0.88
2023-02-14T08:08:28.794Z,0.88
2023-02-14T08:10:55.802Z,0.92
2023-02-14T08:13:22.642Z,0.96
2023-02-14T08:16:04.418Z,0.99
2023-02-14T08:18:35.048Z,1.04
2023-02-14T08:21:01.858Z,1.10
2023-02-14T08:23:28.753Z,1.17
2023-02-14T08:25:55.512Z,1.23
2023-02-14T08:28:22.143Z,1.29
2023-02-14T08:30:50.059Z,1.36
2023-02-14T08:33:16.689Z,1.44
2023-02-14T08:35:43.227Z,1.50
2023-02-14T08:38:09.866Z,1.57
2023-02-14T08:40:37.239Z,1.64
2023-02-14T08:43:08.020Z,1.74
2023-02-14T08:45:34.796Z,1.82
2023-02-14T08:48:12.113Z,1.92
2023-02-14T08:50:39.647Z,1.98
2023-02-14T08:53:08.982Z,2.07
2023-02-14T08:55:36.158Z,2.15
2023-02-14T08:58:03.560Z,2.24
2023-02-14T09:00:30.812Z,2.35
2023-02-14T09:02:57.358Z,2.44
2023-02-14T09:05:23.959Z,2.54
2023-02-14T09:07:51.391Z,2.62
2023-02-14T09:10:21.451Z,2.71
2023-02-14T09:12:48.210Z,2.80
2023-02-14T09:15:14.697Z,2.86
2023-02-14T09:17:41.332Z,2.93
2023-02-14T09:20:10.047Z,3.00
2023-02-14T09:22:36.712Z,3.10
2023-02-14T09:25:04.334Z,3.19
2023-02-14T09:27:31.054Z,3.29
2023-02-14T09:29:57.461Z,3.39
2023-02-14T09:32:25.218Z,3.48
2023-02-14T09:34:51.931Z,3.55
2023-02-14T09:37:19.491Z,3.66
2023-02-14T09:39:46.144Z,3.75
2023-02-14T09:42:36.820Z,3.85
2023-02-14T09:45:16.830Z,3.95
2023-02-14T09:47:56.533Z,4.07
2023-02-14T09:50:54.744Z,4.17
2023-02-14T09:53:33.755Z,4.30
2023-02-14T09:56:17.562Z,4.43
2023-02-14T09:58:52.424Z,4.52
2023-02-14T10:01:25.839Z,4.59
2023-02-14T10:04:17.159Z,4.75
2023-02-14T10:07:39.240Z,4.93
2023-02-14T10:10:39.686Z,5.06
2023-02-14T10:13:16.945Z,5.16
2023-02-14T10:15:46.867Z,5.27
2023-02-14T10:18:25.274Z,5.39
2023-02-14T10:20:56.439Z,5.45
2023-02-14T10:23:30.852Z,5.56
2023-02-14T10:26:02.976Z,5.66
2023-02-14T10:28:37.200Z,5.76
2023-02-14T10:31:26.927Z,5.88
2023-02-14T10:34:03.151Z,5.99
2023-02-14T10:36:39.967Z,6.08
2023-02-14T10:39:56.090Z,6.19
2023-02-14T10:42:44.174Z,6.29
2023-02-14T10:45:22.926Z,6.40
2023-02-14T10:48:09.073Z,6.47
2023-02-14T10:50:46.540Z,6.57
2023-02-14T10:53:30.762Z,6.62
2023-02-14T10:56:06.378Z,6.71
2023-02-14T10:58:37.788Z,6.80
2023-02-14T11:01:13.233Z,6.90
2023-02-14T11:03:48.679Z,6.97
2023-02-14T11:06:16.106Z,7.03
2023-02-14T11:08:42.605Z,7.13
2023-02-14T11:11:37.751Z,7.24
2023-02-14T11:14:38.027Z,7.30
2023-02-14T11:17:35.911Z,7.33
2023-02-14T11:20:22.545Z,7.41
2023-02-14T11:22:50.076Z,7.48
2023-02-14T11:25:28.932Z,7.59
2023-02-14T11:28:04.840Z,7.67
2023-02-14T11:30:41.586Z,7.77
2023-02-14T11:33:22.277Z,7.80
2023-02-14T11:35:51.976Z,7.86
2023-02-14T11:38:30.522Z,7.90
2023-02-14T11:40:59.804Z,7.94
2023-02-14T11:43:32.970Z,8.08
2023-02-14T11:46:12.809Z,8.21
2023-02-14T11:48:39.804Z,8.27
2023-02-14T11:51:15.780Z,8.32
2023-02-14T11:53:52.375Z,8.44
2023-02-14T11:56:21.527Z,8.53
2023-02-14T11:59:00.045Z,8.59
2023-02-14T12:01:33.762Z,8.64
2023-02-14T12:04:22.323Z,8.68
2023-02-14T12:06:48.992Z,8.76
2023-02-14T12:09:24.627Z,8.83
2023-02-14T12:12:04.512Z,8.87
2023-02-14T12:14:35.778Z,8.90
2023-02-14T12:17:11.469Z,8.94
2023-02-14T12:19:55.820Z,8.95
2023-02-14T12:22:28.523Z,8.96
2023-02-14T12:25:18.700Z,8.98
2023-02-14T12:27:56.870Z,9.07
2023-02-14T12:30:27.016Z,9.10
2023-02-14T12:32:56.290Z,9.18
2023-02-14T12:35:50.205Z,9.22
2023-02-14T12:38:43.969Z,9.28
2023-02-14T12:41:19.135Z,9.32
2023-02-14T12:43:50.639Z,9.42
2023-02-14T12:46:35.638Z,9.45
2023-02-14T12:49:17.248Z,9.48
2023-02-14T12:51:58.978Z,9.50
2023-02-14T12:55:22.861Z,9.57
2023-02-14T12:57:57.755Z,9.62
2023-02-14T13:00:46.420Z,9.60
2023-02-14T13:03:27.987Z,9.68
2023-02-14T13:06:00.552Z,9.77
2023-02-14T13:08:47.347Z,9.91
2023-02-14T13:11:16.652Z,9.98
2023-02-14T13:14:04.707Z,9.99
2023-02-14T13:16:43.021Z,9.99
2023-02-14T13:19:33.806Z,10.00
2023-02-14T13:22:01.483Z,10.07
2023-02-14T13:24:33.765Z,10.10
2023-02-14T13:27:03.301Z,10.19
2023-02-14T13:29:42.212Z,10.22
2023-02-14T13:32:14.243Z,10.24
2023-02-14T13:34:48.533Z,10.26
2023-02-14T13:37:22.029Z,10.32
2023-02-14T13:40:06.478Z,10.40
2023-02-14T13:42:48.567Z,10.42
2023-02-14T13:45:30.591Z,10.41
2023-02-14T13:48:19.009Z,10.42
2023-02-14T13:50:53.248Z,10.45
2023-02-14T13:53:29.352Z,10.53
2023-02-14T13:55:56.262Z,10.52
2023-02-14T13:58:24.329Z,10.50
2023-02-14T14:00:52.232Z,10.59
2023-02-14T14:03:27.898Z,10.59
2023-02-14T14:06:03.745Z,10.59
2023-02-14T14:08:31.384Z,10.58
2023-02-14T14:11:00.085Z,10.58
2023-02-14T14:13:41.603Z,10.60
2023-02-14T14:16:23.515Z,10.61
2023-02-14T14:18:52.037Z,10.62
2023-02-14T14:21:30.598Z,10.58
2023-02-14T14:24:15.766Z,10.61
2023-02-14T14:27:18.857Z,10.62
2023-02-14T14:29:47.986Z,10.60
2023-02-14T14:32:21.504Z,10.61
2023-02-14T14:34:53.700Z,10.55
2023-02-14T14:37:23.388Z,10.46
2023-02-14T14:39:55.681Z,10.40
2023-02-14T14:42:24.932Z,10.33
2023-02-14T14:44:57.278Z,10.33
2023-02-14T14:47:32.483Z,10.37
2023-02-14T14:50:07.820Z,10.36
2023-02-14T14:52:38.292Z,10.35
2023-02-14T14:55:07.671Z,10.31
2023-02-14T14:57:36.605Z,10.30
2023-02-14T15:00:27.325Z,10.29
2023-02-14T15:03:00.142Z,10.31
2023-02-14T15:05:38.187Z,10.26
2023-02-14T15:08:14.728Z,10.26
2023-02-14T15:10:41.611Z,10.24
2023-02-14T15:13:31.583Z,10.19
2023-02-14T15:15:58.792Z,10.15
2023-02-14T15:18:25.594Z,10.17
2023-02-14T15:20:52.871Z,10.12
2023-02-14T15:23:23.495Z,10.09
2023-02-14T15:25:51.717Z,10.08
2023-02-14T15:28:29.063Z,10.12
2023-02-14T15:30:58.272Z,10.12
2023-02-14T15:33:25.173Z,10.09
2023-02-14T15:35:52.618Z,10.06
2023-02-14T15:38:21.879Z,10.03
2023-02-14T15:40:48.716Z,10.00
2023-02-14T15:43:17.923Z,9.99
2023-02-14T15:45:51.076Z,9.95
2023-02-14T15:48:30.535Z,9.91
2023-02-14T15:50:59.792Z,9.86
2023-02-14T15:53:38.693Z,9.81
2023-02-14T15:56:11.560Z,9.76
2023-02-14T15:58:40.551Z,9.73
2023-02-14T16:01:09.226Z,9.70
2023-02-14T16:03:40.353Z,9.65
2023-02-14T16:06:07.200Z,9.60
2023-02-14T16:08:41.186Z,9.53
2023-02-14T16:11:15.834Z,9.50
2023-02-14T16:13:45.099Z,9.45
2023-02-14T16:16:13.787Z,9.38
2023-02-14T16:18:43.106Z,9.30
2023-02-14T16:21:19.361Z,9.23
2023-02-14T16:24:06.435Z,9.17
2023-02-14T16:26:42.028Z,9.10
2023-02-14T16:29:10.546Z,9.03
2023-02-14T16:32:01.223Z,8.95
2023-02-14T16:34:32.371Z,8.87
2023-02-14T16:37:06.869Z,8.79
2023-02-14T16:39:34.582Z,8.72
2023-02-14T16:42:03.387Z,8.63
2023-02-14T16:44:29.858Z,8.55
2023-02-14T16:46:56.287Z,8.48
2023-02-14T16:49:23.640Z,8.41
2023-02-14T16:51:51.740Z,8.37
2023-02-14T16:54:20.397Z,8.30
2023-02-14T16:56:52.614Z,8.24
2023-02-14T16:59:19.086Z,8.17
2023-02-14T17:01:45.970Z,8.11
2023-02-14T17:04:12.693Z,8.04
2023-02-14T17:06:43.508Z,7.97
2023-02-14T17:09:13.514Z,7.90
2023-02-14T17:11:44.602Z,7.82
2023-02-14T17:14:14.820Z,7.77
2023-02-14T17:16:42.503Z,7.71
2023-02-14T17:19:09.276Z,7.67
2023-02-14T17:21:35.785Z,7.62
2023-02-14T17:24:03.439Z,7.56
2023-02-14T17:26:30.298Z,7.51
2023-02-14T17:28:56.731Z,7.43
2023-02-14T17:31:23.246Z,7.38
2023-02-14T17:33:49.817Z,7.33
2023-02-14T17:36:16.503Z,7.27
2023-02-14T17:38:45.639Z,7.22
2023-02-14T17:41:22.320Z,7.18
2023-02-14T17:43:49.964Z,7.15
2023-02-14T17:46:18.703Z,7.12
2023-02-14T17:48:46.008Z,7.07
2023-02-14T17:51:13.704Z,7.00
2023-02-14T17:53:41.720Z,6.94
2023-02-14T17:56:12.966Z,6.87
2023-02-14T17:58:39.417Z,6.82
2023-02-14T18:01:08.388Z,6.76
2023-02-14T18:03:35.433Z,6.71
2023-02-14T18:06:02.619Z,6.65
2023-02-14T18:08:31.149Z,6.61
2023-02-14T18:10:57.658Z,6.58
2023-02-14T18:13:25.573Z,6.55
2023-02-14T18:15:53.439Z,6.52
2023-02-14T18:18:20.302Z,6.46
2023-02-14T18:20:54.899Z,6.41
2023-02-14T18:23:21.855Z,6.40
2023-02-14T18:25:57.522Z,6.35
2023-02-14T18:28:25.414Z,6.29
2023-02-14T18:30:52.725Z,6.21
2023-02-14T18:33:19.722Z,6.14
2023-02-14T18:35:46.649Z,6.12
2023-02-14T18:38:13.988Z,6.10
2023-02-14T18:40:41.416Z,6.03
2023-02-14T18:43:07.847Z,5.96
2023-02-14T18:45:38.498Z,5.95
2023-02-14T18:48:05.998Z,5.92
2023-02-14T18:50:35.946Z,5.86
2023-02-14T18:53:02.733Z,5.83
2023-02-14T18:55:29.645Z,5.82
2023-02-14T18:57:56.053Z,5.79
2023-02-14T19:00:23.199Z,5.75
2023-02-14T19:02:49.724Z,5.70
2023-02-14T19:05:16.184Z,5.66
2023-02-14T19:07:42.599Z,5.63
2023-02-14T19:10:09.948Z,5.60
2023-02-14T19:12:36.388Z,5.57
2023-02-14T19:15:03.566Z,5.52
2023-02-14T19:17:30.019Z,5.47
2023-02-14T19:19:57.100Z,5.44
2023-02-14T19:22:23.730Z,5.44
2023-02-14T19:24:52.998Z,5.40
2023-02-14T19:27:19.731Z,5.36
2023-02-14T19:29:46.125Z,5.32
2023-02-14T19:32:12.607Z,5.28
2023-02-14T19:34:39.138Z,5.24
2023-02-14T19:37:06.431Z,5.19
2023-02-14T19:39:33.015Z,5.17
2023-02-14T19:42:00.086Z,5.12
2023-02-14T19:44:28.724Z,5.06
2023-02-14T19:46:56.574Z,5.01
2023-02-14T19:49:23.295Z,4.96
2023-02-14T19:51:51.470Z,4.91
2023-02-14T19:54:19.028Z,4.86
2023-02-14T19:56:46.665Z,4.82
2023-02-14T19:59:19.715Z,4.80
2023-02-14T20:01:49.627Z,4.77
2023-02-14T20:04:28.741Z,4.75
2023-02-14T20:06:55.704Z,4.75
2023-02-14T20:09:23.547Z,4.73
2023-02-14T20:12:01.104Z,4.69
2023-02-14T20:14:35.937Z,4.61
2023-02-14T20:17:07.881Z,4.61
2023-02-14T20:19:35.818Z,4.60
2023-02-14T20:22:02.578Z,4.55
2023-02-14T20:24:31.761Z,4.48
2023-02-14T20:27:00.330Z,4.44
2023-02-14T20:29:27.699Z,4.39
2023-02-14T20:31:58.072Z,4.32
2023-02-14T20:34:24.596Z,4.24
2023-02-14T20:36:55.289Z,4.23
2023-02-14T20:39:26.384Z,4.23
2023-02-14T20:41:53.960Z,4.20
2023-02-14T20:44:21.431Z,4.16
2023-02-14T20:46:49.547Z,4.13
2023-02-14T20:49:16.116Z,4.14
2023-02-14T20:51:42.855Z,4.13
2023-02-14T20:54:09.352Z,4.07
2023-02-14T20:56:35.771Z,3.98
2023-02-14T20:59:03.290Z,3.97
2023-02-14T21:01:30.030Z,3.95
2023-02-14T21:03:56.474Z,3.90
2023-02-14T21:06:26.680Z,3.85
2023-02-14T21:08:53.460Z,3.87
2023-02-14T21:11:22.649Z,3.85
2023-02-14T21:13:49.216Z,3.82
2023-02-14T21:16:19.518Z,3.80
2023-02-14T21:18:49.141Z,3.78
2023-02-14T21:21:20.048Z,3.76
2023-02-14T21:23:49.195Z,3.68
2023-02-14T21:26:16.142Z,3.67
2023-02-14T21:28:42.554Z,3.67
2023-02-14T21:31:12.375Z,3.63
2023-02-14T21:33:39.148Z,3.59
2023-02-14T21:36:07.147Z,3.56
2023-02-14T21:38:34.287Z,3.55
2023-02-14T21:41:04.749Z,3.55
2023-02-14T21:43:35.031Z,3.51
2023-02-14T21:46:06.235Z,3.47
2023-02-14T21:48:51.207Z,3.44
2023-02-14T21:51:18.684Z,3.41
2023-02-14T21:53:46.053Z,3.42
2023-02-14T21:56:17.996Z,3.38
2023-02-14T21:58:44.563Z,3.35
2023-02-14T22:01:17.330Z,3.34
2023-02-14T22:03:44.023Z,3.28
2023-02-14T22:06:10.500Z,3.24
2023-02-14T22:08:37.005Z,3.23
2023-02-14T22:11:08.367Z,3.19
2023-02-14T22:13:35.287Z,3.15
2023-02-14T22:16:03.516Z,3.15
2023-02-14T22:18:30.268Z,3.11
2023-02-14T22:21:05.206Z,3.06
2023-02-14T22:23:35.151Z,3.04
2023-02-14T22:26:15.342Z,3.04
2023-02-14T22:28:43.953Z,3.01
2023-02-14T22:31:11.335Z,3.03
2023-02-14T22:33:38.293Z,3.02
2023-02-14T22:36:06.015Z,2.96
2023-02-14T22:38:33.551Z,2.92
2023-02-14T22:41:13.177Z,2.90
2023-02-14T22:43:40.284Z,2.88
2023-02-14T22:46:10.443Z,2.86
2023-02-14T22:48:37.687Z,2.82
2023-02-14T22:51:09.474Z,2.83
2023-02-14T22:53:36.338Z,2.79
2023-02-14T22:56:14.395Z,2.76
2023-02-14T22:58:41.343Z,2.73
2023-02-14T23:01:16.354Z,2.69
2023-02-14T23:03:43.433Z,2.71
2023-02-14T23:06:10.691Z,2.67
2023-02-14T23:08:42.113Z,2.64
2023-02-14T23:11:16.672Z,2.59
2023-02-14T23:14:01.915Z,2.54
2023-02-14T23:16:47.179Z,2.47
2023-02-14T23:19:41.339Z,2.43
2023-02-14T23:22:12.426Z,2.38
2023-02-14T23:24:39.193Z,2.35
2023-02-14T23:27:06.904Z,2.35
2023-02-14T23:29:33.584Z,2.33
2023-02-14T23:32:00.108Z,2.30
2023-02-14T23:34:28.837Z,2.28
2023-02-14T23:36:55.495Z,2.26
2023-02-14T23:39:22.845Z,2.25
2023-02-14T23:41:49.709Z,2.24
2023-02-14T23:44:21.332Z,2.22
2023-02-14T23:46:52.522Z,2.20
2023-02-14T23:49:19.701Z,2.19
2023-02-14T23:51:47.590Z,2.16
2023-02-14T23:54:15.015Z,2.14
2023-02-14T23:56:42.076Z,2.12
2023-02-14T23:59:08.909Z,2.10
